sensor_id;sensor_type;location;lat;lon;timestamp;P1;durP1;ratioP1;P2;durP2;ratioP2
10260;SDS011;5175;42.606;23.388;2023-07-30T00:02:14;2.83;;;2.63;;
10260;SDS011;5175;42.606;23.388;2023-07-30T00:04:41;2.85;;;2.50;;
10260;SDS011;5175;42.606;23.388;2023-07-30T00:07:08;3.35;;;2.47;;
10260;SDS011;5175;42.606;23.388;2023-07-30T00:09:35;3.22;;;2.92;;
10260;SDS011;5175;42.606;23.388;2023-07-30T00:12:03;2.97;;;2.78;;
10260;SDS011;5175;42.606;23.388;2023-07-30T00:14:31;3.35;;;2.40;;
10260;SDS011;5175;42.606;23.388;2023-07-30T00:16:57;2.95;;;2.60;;
10260;SDS011;5175;42.606;23.388;2023-07-30T00:19:24;2.58;;;2.38;;
10260;SDS011;5175;42.606;23.388;2023-07-30T00:21:51;3.10;;;2.90;;
10260;SDS011;5175;42.606;23.388;2023-07-30T00:24:18;3.35;;;3.00;;
10260;SDS011;5175;42.606;23.388;2023-07-30T00:26:44;2.63;;;2.42;;
10260;SDS011;5175;42.606;23.388;2023-07-30T00:29:13;3.05;;;2.78;;
10260;SDS011;5175;42.606;23.388;2023-07-30T00:31:39;3.00;;;2.80;;
10260;SDS011;5175;42.606;23.388;2023-07-30T00:34:06;2.70;;;2.50;;
10260;SDS011;5175;42.606;23.388;2023-07-30T00:36:33;2.92;;;2.72;;
10260;SDS011;5175;42.606;23.388;2023-07-30T00:38:59;2.95;;;2.67;;
10260;SDS011;5175;42.606;23.388;2023-07-30T00:41:26;4.43;;;2.65;;
10260;SDS011;5175;42.606;23.388;2023-07-30T00:43:53;3.13;;;2.78;;
10260;SDS011;5175;42.606;23.388;2023-07-30T00:46:21;3.05;;;2.75;;
10260;SDS011;5175;42.606;23.388;2023-07-30T00:48:48;3.22;;;2.67;;
10260;SDS011;5175;42.606;23.388;2023-07-30T00:51:15;3.10;;;2.80;;
10260;SDS011;5175;42.606;23.388;2023-07-30T00:53:43;3.15;;;2.70;;
10260;SDS011;5175;42.606;23.388;2023-07-30T00:56:10;3.30;;;3.00;;
10260;SDS011;5175;42.606;23.388;2023-07-30T00:58:37;3.00;;;2.80;;
10260;SDS011;5175;42.606;23.388;2023-07-30T01:01:04;3.08;;;2.78;;
10260;SDS011;5175;42.606;23.388;2023-07-30T01:03:32;3.33;;;2.78;;
10260;SDS011;5175;42.606;23.388;2023-07-30T01:05:59;3.47;;;3.13;;
10260;SDS011;5175;42.606;23.388;2023-07-30T01:08:26;3.10;;;2.90;;
10260;SDS011;5175;42.606;23.388;2023-07-30T01:10:53;3.30;;;3.00;;
10260;SDS011;5175;42.606;23.388;2023-07-30T01:13:20;3.40;;;2.67;;
10260;SDS011;5175;42.606;23.388;2023-07-30T01:15:48;3.75;;;2.78;;
10260;SDS011;5175;42.606;23.388;2023-07-30T01:18:15;3.03;;;2.83;;
10260;SDS011;5175;42.606;23.388;2023-07-30T01:20:43;2.97;;;2.78;;
10260;SDS011;5175;42.606;23.388;2023-07-30T01:23:11;3.05;;;2.80;;
10260;SDS011;5175;42.606;23.388;2023-07-30T01:25:38;3.28;;;2.95;;
10260;SDS011;5175;42.606;23.388;2023-07-30T01:28:08;4.60;;;3.25;;
10260;SDS011;5175;42.606;23.388;2023-07-30T01:30:40;2.92;;;2.72;;
10260;SDS011;5175;42.606;23.388;2023-07-30T01:33:08;6.13;;;3.15;;
10260;SDS011;5175;42.606;23.388;2023-07-30T01:35:37;4.65;;;3.05;;
10260;SDS011;5175;42.606;23.388;2023-07-30T01:38:04;3.13;;;2.83;;
10260;SDS011;5175;42.606;23.388;2023-07-30T01:40:35;2.90;;;2.67;;
10260;SDS011;5175;42.606;23.388;2023-07-30T01:43:02;4.40;;;3.17;;
10260;SDS011;5175;42.606;23.388;2023-07-30T01:45:28;6.63;;;2.95;;
10260;SDS011;5175;42.606;23.388;2023-07-30T01:47:55;4.18;;;2.88;;
10260;SDS011;5175;42.606;23.388;2023-07-30T01:50:22;2.80;;;2.60;;
10260;SDS011;5175;42.606;23.388;2023-07-30T01:52:48;3.60;;;2.90;;
10260;SDS011;5175;42.606;23.388;2023-07-30T01:55:15;3.28;;;2.70;;
10260;SDS011;5175;42.606;23.388;2023-07-30T01:57:44;4.82;;;3.10;;
10260;SDS011;5175;42.606;23.388;2023-07-30T02:00:11;3.30;;;2.95;;
10260;SDS011;5175;42.606;23.388;2023-07-30T02:02:38;3.28;;;2.97;;
10260;SDS011;5175;42.606;23.388;2023-07-30T02:05:05;3.10;;;2.85;;
10260;SDS011;5175;42.606;23.388;2023-07-30T02:07:32;3.55;;;3.25;;
10260;SDS011;5175;42.606;23.388;2023-07-30T02:09:58;3.42;;;3.13;;
10260;SDS011;5175;42.606;23.388;2023-07-30T02:12:25;3.30;;;3.00;;
10260;SDS011;5175;42.606;23.388;2023-07-30T02:14:53;5.70;;;3.67;;
10260;SDS011;5175;42.606;23.388;2023-07-30T02:17:20;3.30;;;2.88;;
10260;SDS011;5175;42.606;23.388;2023-07-30T02:19:47;4.65;;;3.17;;
10260;SDS011;5175;42.606;23.388;2023-07-30T02:22:14;3.20;;;3.00;;
10260;SDS011;5175;42.606;23.388;2023-07-30T02:24:41;2.73;;;2.53;;
10260;SDS011;5175;42.606;23.388;2023-07-30T02:27:07;4.23;;;3.10;;
10260;SDS011;5175;42.606;23.388;2023-07-30T02:29:34;3.27;;;2.97;;
10260;SDS011;5175;42.606;23.388;2023-07-30T02:32:02;3.93;;;3.30;;
10260;SDS011;5175;42.606;23.388;2023-07-30T02:34:30;3.33;;;3.03;;
10260;SDS011;5175;42.606;23.388;2023-07-30T02:36:56;3.40;;;3.10;;
10260;SDS011;5175;42.606;23.388;2023-07-30T02:39:23;4.53;;;3.10;;
10260;SDS011;5175;42.606;23.388;2023-07-30T02:41:50;3.50;;;3.20;;
10260;SDS011;5175;42.606;23.388;2023-07-30T02:44:16;5.27;;;3.13;;
10260;SDS011;5175;42.606;23.388;2023-07-30T02:46:43;6.33;;;3.40;;
10260;SDS011;5175;42.606;23.388;2023-07-30T02:49:11;3.33;;;3.03;;
10260;SDS011;5175;42.606;23.388;2023-07-30T02:51:38;4.93;;;3.00;;
10260;SDS011;5175;42.606;23.388;2023-07-30T02:54:05;3.58;;;3.28;;
10260;SDS011;5175;42.606;23.388;2023-07-30T02:56:33;3.30;;;3.00;;
10260;SDS011;5175;42.606;23.388;2023-07-30T02:58:59;3.40;;;3.10;;
10260;SDS011;5175;42.606;23.388;2023-07-30T03:01:27;3.50;;;3.20;;
10260;SDS011;5175;42.606;23.388;2023-07-30T03:03:54;4.20;;;3.37;;
10260;SDS011;5175;42.606;23.388;2023-07-30T03:06:22;3.77;;;3.47;;
10260;SDS011;5175;42.606;23.388;2023-07-30T03:08:49;3.43;;;3.13;;
10260;SDS011;5175;42.606;23.388;2023-07-30T03:11:15;3.33;;;3.03;;
10260;SDS011;5175;42.606;23.388;2023-07-30T03:13:42;4.20;;;3.30;;
10260;SDS011;5175;42.606;23.388;2023-07-30T03:16:09;3.67;;;3.37;;
10260;SDS011;5175;42.606;23.388;2023-07-30T03:18:36;3.70;;;3.30;;
10260;SDS011;5175;42.606;23.388;2023-07-30T03:21:02;3.70;;;3.40;;
10260;SDS011;5175;42.606;23.388;2023-07-30T03:23:31;3.60;;;3.30;;
10260;SDS011;5175;42.606;23.388;2023-07-30T03:25:57;3.70;;;3.40;;
10260;SDS011;5175;42.606;23.388;2023-07-30T03:28:25;4.73;;;3.10;;
10260;SDS011;5175;42.606;23.388;2023-07-30T03:30:52;3.60;;;3.30;;
10260;SDS011;5175;42.606;23.388;2023-07-30T03:33:19;3.70;;;3.40;;
10260;SDS011;5175;42.606;23.388;2023-07-30T03:35:46;3.80;;;3.50;;
10260;SDS011;5175;42.606;23.388;2023-07-30T03:38:13;3.73;;;3.43;;
10260;SDS011;5175;42.606;23.388;2023-07-30T03:40:41;4.00;;;3.43;;
10260;SDS011;5175;42.606;23.388;2023-07-30T03:43:08;5.70;;;3.40;;
10260;SDS011;5175;42.606;23.388;2023-07-30T03:45:35;3.90;;;3.60;;
10260;SDS011;5175;42.606;23.388;2023-07-30T03:48:01;4.37;;;3.47;;
10260;SDS011;5175;42.606;23.388;2023-07-30T03:50:28;3.70;;;3.40;;
10260;SDS011;5175;42.606;23.388;2023-07-30T03:52:55;3.87;;;3.50;;
10260;SDS011;5175;42.606;23.388;2023-07-30T03:55:23;3.77;;;3.43;;
10260;SDS011;5175;42.606;23.388;2023-07-30T03:57:51;4.10;;;3.63;;
10260;SDS011;5175;42.606;23.388;2023-07-30T04:00:17;3.60;;;3.30;;
10260;SDS011;5175;42.606;23.388;2023-07-30T04:02:44;4.93;;;3.50;;
10260;SDS011;5175;42.606;23.388;2023-07-30T04:05:11;3.87;;;3.57;;
10260;SDS011;5175;42.606;23.388;2023-07-30T04:07:38;4.15;;;3.78;;
10260;SDS011;5175;42.606;23.388;2023-07-30T04:10:05;3.87;;;3.57;;
10260;SDS011;5175;42.606;23.388;2023-07-30T04:12:32;3.70;;;3.40;;
10260;SDS011;5175;42.606;23.388;2023-07-30T04:15:00;4.30;;;3.90;;
10260;SDS011;5175;42.606;23.388;2023-07-30T04:17:27;3.95;;;3.65;;
10260;SDS011;5175;42.606;23.388;2023-07-30T04:19:53;4.07;;;3.78;;
10260;SDS011;5175;42.606;23.388;2023-07-30T04:22:20;4.65;;;4.18;;
10260;SDS011;5175;42.606;23.388;2023-07-30T04:24:47;4.30;;;3.90;;
10260;SDS011;5175;42.606;23.388;2023-07-30T04:27:14;4.35;;;3.95;;
10260;SDS011;5175;42.606;23.388;2023-07-30T04:29:40;4.63;;;3.90;;
10260;SDS011;5175;42.606;23.388;2023-07-30T04:32:09;5.18;;;4.30;;
10260;SDS011;5175;42.606;23.388;2023-07-30T04:34:35;4.10;;;3.70;;
10260;SDS011;5175;42.606;23.388;2023-07-30T04:37:02;4.45;;;4.10;;
10260;SDS011;5175;42.606;23.388;2023-07-30T04:39:29;4.43;;;4.03;;
10260;SDS011;5175;42.606;23.388;2023-07-30T04:41:56;4.53;;;4.13;;
10260;SDS011;5175;42.606;23.388;2023-07-30T04:44:23;5.45;;;4.40;;
10260;SDS011;5175;42.606;23.388;2023-07-30T04:46:50;4.27;;;3.90;;
10260;SDS011;5175;42.606;23.388;2023-07-30T04:49:18;4.82;;;4.43;;
10260;SDS011;5175;42.606;23.388;2023-07-30T04:51:44;4.47;;;3.85;;
10260;SDS011;5175;42.606;23.388;2023-07-30T04:54:11;4.85;;;4.45;;
10260;SDS011;5175;42.606;23.388;2023-07-30T04:56:38;5.25;;;4.35;;
10260;SDS011;5175;42.606;23.388;2023-07-30T04:59:05;4.55;;;4.15;;
10260;SDS011;5175;42.606;23.388;2023-07-30T05:01:32;4.75;;;4.28;;
10260;SDS011;5175;42.606;23.388;2023-07-30T05:03:59;4.70;;;4.30;;
10260;SDS011;5175;42.606;23.388;2023-07-30T05:06:27;4.50;;;4.20;;
10260;SDS011;5175;42.606;23.388;2023-07-30T05:08:53;4.57;;;4.18;;
10260;SDS011;5175;42.606;23.388;2023-07-30T05:11:20;4.82;;;4.10;;
10260;SDS011;5175;42.606;23.388;2023-07-30T05:13:47;4.50;;;4.10;;
10260;SDS011;5175;42.606;23.388;2023-07-30T05:16:14;4.50;;;4.10;;
10260;SDS011;5175;42.606;23.388;2023-07-30T05:18:41;4.63;;;4.22;;
10260;SDS011;5175;42.606;23.388;2023-07-30T05:21:07;4.90;;;3.95;;
10260;SDS011;5175;42.606;23.388;2023-07-30T05:23:35;5.47;;;4.53;;
10260;SDS011;5175;42.606;23.388;2023-07-30T05:26:02;5.80;;;4.20;;
10260;SDS011;5175;42.606;23.388;2023-07-30T05:28:29;4.63;;;4.20;;
10260;SDS011;5175;42.606;23.388;2023-07-30T05:30:56;4.72;;;4.15;;
10260;SDS011;5175;42.606;23.388;2023-07-30T05:33:22;5.18;;;4.13;;
10260;SDS011;5175;42.606;23.388;2023-07-30T05:35:49;4.85;;;4.20;;
10260;SDS011;5175;42.606;23.388;2023-07-30T05:38:16;4.75;;;4.32;;
10260;SDS011;5175;42.606;23.388;2023-07-30T05:40:44;4.25;;;3.95;;
10260;SDS011;5175;42.606;23.388;2023-07-30T05:43:11;4.50;;;3.60;;
10260;SDS011;5175;42.606;23.388;2023-07-30T05:45:37;4.22;;;3.92;;
10260;SDS011;5175;42.606;23.388;2023-07-30T05:48:04;4.07;;;3.78;;
10260;SDS011;5175;42.606;23.388;2023-07-30T05:50:31;4.28;;;3.97;;
10260;SDS011;5175;42.606;23.388;2023-07-30T05:52:58;4.70;;;4.20;;
10260;SDS011;5175;42.606;23.388;2023-07-30T05:55:24;4.32;;;3.92;;
10260;SDS011;5175;42.606;23.388;2023-07-30T05:57:52;4.55;;;4.00;;
10260;SDS011;5175;42.606;23.388;2023-07-30T06:00:20;4.50;;;4.10;;
10260;SDS011;5175;42.606;23.388;2023-07-30T06:02:47;4.65;;;4.20;;
10260;SDS011;5175;42.606;23.388;2023-07-30T06:05:14;4.80;;;3.90;;
10260;SDS011;5175;42.606;23.388;2023-07-30T06:07:41;4.38;;;3.88;;
10260;SDS011;5175;42.606;23.388;2023-07-30T06:10:08;5.13;;;4.05;;
10260;SDS011;5175;42.606;23.388;2023-07-30T06:12:35;4.40;;;3.92;;
10260;SDS011;5175;42.606;23.388;2023-07-30T06:15:04;5.57;;;3.92;;
10260;SDS011;5175;42.606;23.388;2023-07-30T06:17:32;4.65;;;4.18;;
10260;SDS011;5175;42.606;23.388;2023-07-30T06:19:59;4.30;;;4.00;;
10260;SDS011;5175;42.606;23.388;2023-07-30T06:22:26;4.38;;;3.97;;
10260;SDS011;5175;42.606;23.388;2023-07-30T06:24:53;4.95;;;4.38;;
10260;SDS011;5175;42.606;23.388;2023-07-30T06:27:20;6.15;;;3.85;;
10260;SDS011;5175;42.606;23.388;2023-07-30T06:29:46;4.07;;;3.72;;
10260;SDS011;5175;42.606;23.388;2023-07-30T06:32:14;3.90;;;3.60;;
10260;SDS011;5175;42.606;23.388;2023-07-30T06:34:41;4.28;;;3.88;;
10260;SDS011;5175;42.606;23.388;2023-07-30T06:37:08;4.75;;;3.97;;
10260;SDS011;5175;42.606;23.388;2023-07-30T06:39:35;3.80;;;3.50;;
10260;SDS011;5175;42.606;23.388;2023-07-30T06:42:01;3.75;;;3.45;;
10260;SDS011;5175;42.606;23.388;2023-07-30T06:44:28;3.58;;;3.28;;
10260;SDS011;5175;42.606;23.388;2023-07-30T06:46:55;5.65;;;3.35;;
10260;SDS011;5175;42.606;23.388;2023-07-30T06:49:23;3.88;;;3.58;;
10260;SDS011;5175;42.606;23.388;2023-07-30T06:51:50;3.50;;;3.20;;
10260;SDS011;5175;42.606;23.388;2023-07-30T06:54:17;3.53;;;3.22;;
10260;SDS011;5175;42.606;23.388;2023-07-30T06:56:43;3.80;;;3.30;;
10260;SDS011;5175;42.606;23.388;2023-07-30T06:59:10;3.50;;;3.20;;
10260;SDS011;5175;42.606;23.388;2023-07-30T07:01:37;5.70;;;3.72;;
10260;SDS011;5175;42.606;23.388;2023-07-30T07:04:04;4.80;;;3.80;;
10260;SDS011;5175;42.606;23.388;2023-07-30T07:06:32;3.72;;;3.42;;
10260;SDS011;5175;42.606;23.388;2023-07-30T07:08:58;4.00;;;3.70;;
10260;SDS011;5175;42.606;23.388;2023-07-30T07:11:25;4.50;;;3.67;;
10260;SDS011;5175;42.606;23.388;2023-07-30T07:13:52;4.95;;;3.70;;
10260;SDS011;5175;42.606;23.388;2023-07-30T07:16:19;3.90;;;3.60;;
10260;SDS011;5175;42.606;23.388;2023-07-30T07:18:46;5.55;;;3.58;;
10260;SDS011;5175;42.606;23.388;2023-07-30T07:21:14;3.95;;;3.50;;
10260;SDS011;5175;42.606;23.388;2023-07-30T07:23:42;3.92;;;3.63;;
10260;SDS011;5175;42.606;23.388;2023-07-30T07:26:09;5.03;;;3.70;;
10260;SDS011;5175;42.606;23.388;2023-07-30T07:28:35;6.30;;;3.80;;
10260;SDS011;5175;42.606;23.388;2023-07-30T07:31:02;4.63;;;3.60;;
10260;SDS011;5175;42.606;23.388;2023-07-30T07:33:29;4.57;;;3.97;;
10260;SDS011;5175;42.606;23.388;2023-07-30T07:36:02;3.90;;;3.60;;
10260;SDS011;5175;42.606;23.388;2023-07-30T07:38:30;3.92;;;3.60;;
10260;SDS011;5175;42.606;23.388;2023-07-30T07:40:59;5.30;;;3.40;;
10260;SDS011;5175;42.606;23.388;2023-07-30T07:43:26;4.85;;;3.67;;
10260;SDS011;5175;42.606;23.388;2023-07-30T07:45:53;5.50;;;3.50;;
10260;SDS011;5175;42.606;23.388;2023-07-30T07:48:20;3.92;;;3.58;;
10260;SDS011;5175;42.606;23.388;2023-07-30T07:50:46;4.88;;;3.50;;
10260;SDS011;5175;42.606;23.388;2023-07-30T07:53:13;3.97;;;3.17;;
10260;SDS011;5175;42.606;23.388;2023-07-30T07:55:40;3.42;;;3.13;;
10260;SDS011;5175;42.606;23.388;2023-07-30T07:58:08;5.80;;;3.38;;
10260;SDS011;5175;42.606;23.388;2023-07-30T08:00:35;6.20;;;3.50;;
10260;SDS011;5175;42.606;23.388;2023-07-30T08:03:01;5.38;;;3.50;;
10260;SDS011;5175;42.606;23.388;2023-07-30T08:05:28;3.60;;;3.30;;
10260;SDS011;5175;42.606;23.388;2023-07-30T08:07:55;3.75;;;3.30;;
10260;SDS011;5175;42.606;23.388;2023-07-30T08:10:21;3.13;;;2.83;;
10260;SDS011;5175;42.606;23.388;2023-07-30T08:12:48;3.65;;;3.25;;
10260;SDS011;5175;42.606;23.388;2023-07-30T08:15:16;4.45;;;3.13;;
10260;SDS011;5175;42.606;23.388;2023-07-30T08:17:43;3.63;;;3.28;;
10260;SDS011;5175;42.606;23.388;2023-07-30T08:20:10;5.30;;;2.95;;
10260;SDS011;5175;42.606;23.388;2023-07-30T08:22:37;6.43;;;2.92;;
10260;SDS011;5175;42.606;23.388;2023-07-30T08:25:04;3.40;;;3.10;;
10260;SDS011;5175;42.606;23.388;2023-07-30T08:27:32;3.20;;;2.90;;
10260;SDS011;5175;42.606;23.388;2023-07-30T08:29:58;3.35;;;3.05;;
10260;SDS011;5175;42.606;23.388;2023-07-30T08:32:27;2.85;;;2.65;;
10260;SDS011;5175;42.606;23.388;2023-07-30T08:34:53;5.13;;;3.30;;
10260;SDS011;5175;42.606;23.388;2023-07-30T08:37:20;3.15;;;2.90;;
10260;SDS011;5175;42.606;23.388;2023-07-30T08:39:47;3.63;;;3.33;;
10260;SDS011;5175;42.606;23.388;2023-07-30T08:42:14;4.25;;;3.15;;
10260;SDS011;5175;42.606;23.388;2023-07-30T08:44:41;3.47;;;3.17;;
10260;SDS011;5175;42.606;23.388;2023-07-30T08:47:08;3.72;;;3.20;;
10260;SDS011;5175;42.606;23.388;2023-07-30T08:49:36;4.57;;;3.30;;
10260;SDS011;5175;42.606;23.388;2023-07-30T08:52:03;3.47;;;3.05;;
10260;SDS011;5175;42.606;23.388;2023-07-30T08:54:33;3.60;;;2.75;;
10260;SDS011;5175;42.606;23.388;2023-07-30T08:57:02;2.97;;;2.78;;
10260;SDS011;5175;42.606;23.388;2023-07-30T08:59:30;3.03;;;2.80;;
10260;SDS011;5175;42.606;23.388;2023-07-30T09:02:00;3.50;;;3.20;;
10260;SDS011;5175;42.606;23.388;2023-07-30T09:04:27;3.47;;;3.17;;
10260;SDS011;5175;42.606;23.388;2023-07-30T09:07:01;2.92;;;2.72;;
10260;SDS011;5175;42.606;23.388;2023-07-30T09:09:28;3.83;;;3.00;;
10260;SDS011;5175;42.606;23.388;2023-07-30T09:11:55;2.97;;;2.78;;
10260;SDS011;5175;42.606;23.388;2023-07-30T09:14:22;3.55;;;2.90;;
10260;SDS011;5175;42.606;23.388;2023-07-30T09:16:51;3.05;;;2.85;;
10260;SDS011;5175;42.606;23.388;2023-07-30T09:19:23;3.50;;;3.20;;
10260;SDS011;5175;42.606;23.388;2023-07-30T09:21:50;3.45;;;3.15;;
10260;SDS011;5175;42.606;23.388;2023-07-30T09:24:21;3.22;;;2.90;;
10260;SDS011;5175;42.606;23.388;2023-07-30T09:26:48;3.03;;;2.45;;
10260;SDS011;5175;42.606;23.388;2023-07-30T09:29:15;3.33;;;3.03;;
10260;SDS011;5175;42.606;23.388;2023-07-30T09:31:48;3.67;;;3.10;;
10260;SDS011;5175;42.606;23.388;2023-07-30T09:34:19;3.20;;;2.90;;
10260;SDS011;5175;42.606;23.388;2023-07-30T09:36:47;3.38;;;3.08;;
10260;SDS011;5175;42.606;23.388;2023-07-30T09:39:14;3.40;;;3.10;;
10260;SDS011;5175;42.606;23.388;2023-07-30T09:41:43;3.42;;;2.90;;
10260;SDS011;5175;42.606;23.388;2023-07-30T09:44:11;3.33;;;3.08;;
10260;SDS011;5175;42.606;23.388;2023-07-30T09:46:47;3.30;;;3.00;;
10260;SDS011;5175;42.606;23.388;2023-07-30T09:49:15;3.17;;;2.95;;
10260;SDS011;5175;42.606;23.388;2023-07-30T09:51:42;4.00;;;3.30;;
10260;SDS011;5175;42.606;23.388;2023-07-30T09:54:10;4.28;;;3.15;;
10260;SDS011;5175;42.606;23.388;2023-07-30T09:56:39;3.20;;;3.00;;
10260;SDS011;5175;42.606;23.388;2023-07-30T09:59:09;3.40;;;3.10;;
10260;SDS011;5175;42.606;23.388;2023-07-30T10:01:38;3.22;;;2.92;;
10260;SDS011;5175;42.606;23.388;2023-07-30T10:04:12;4.65;;;3.10;;
10260;SDS011;5175;42.606;23.388;2023-07-30T10:06:40;3.28;;;2.97;;
10260;SDS011;5175;42.606;23.388;2023-07-30T10:09:10;3.33;;;3.08;;
10260;SDS011;5175;42.606;23.388;2023-07-30T10:11:40;3.30;;;3.00;;
10260;SDS011;5175;42.606;23.388;2023-07-30T10:14:09;3.28;;;2.97;;
10260;SDS011;5175;42.606;23.388;2023-07-30T10:16:37;3.63;;;3.33;;
10260;SDS011;5175;42.606;23.388;2023-07-30T10:19:04;3.47;;;3.17;;
10260;SDS011;5175;42.606;23.388;2023-07-30T10:21:32;4.07;;;3.33;;
10260;SDS011;5175;42.606;23.388;2023-07-30T10:23:59;3.58;;;3.10;;
10260;SDS011;5175;42.606;23.388;2023-07-30T10:26:28;9.18;;;7.65;;
10260;SDS011;5175;42.606;23.388;2023-07-30T10:31:48;3.90;;;3.60;;
10260;SDS011;5175;42.606;23.388;2023-07-30T10:34:20;3.47;;;3.17;;
10260;SDS011;5175;42.606;23.388;2023-07-30T10:36:48;3.80;;;3.20;;
10260;SDS011;5175;42.606;23.388;2023-07-30T10:39:16;4.72;;;3.10;;
10260;SDS011;5175;42.606;23.388;2023-07-30T10:41:44;3.55;;;3.25;;
10260;SDS011;5175;42.606;23.388;2023-07-30T10:44:19;3.60;;;3.03;;
10260;SDS011;5175;42.606;23.388;2023-07-30T10:46:48;5.18;;;3.47;;
10260;SDS011;5175;42.606;23.388;2023-07-30T10:49:15;3.67;;;3.38;;
10260;SDS011;5175;42.606;23.388;2023-07-30T10:51:42;4.38;;;3.17;;
10260;SDS011;5175;42.606;23.388;2023-07-30T10:54:09;4.22;;;3.50;;
10260;SDS011;5175;42.606;23.388;2023-07-30T10:56:36;4.32;;;3.20;;
10260;SDS011;5175;42.606;23.388;2023-07-30T10:59:04;3.67;;;3.35;;
10260;SDS011;5175;42.606;23.388;2023-07-30T11:01:35;3.70;;;3.40;;
10260;SDS011;5175;42.606;23.388;2023-07-30T11:04:05;3.85;;;3.33;;
10260;SDS011;5175;42.606;23.388;2023-07-30T11:06:33;4.28;;;3.50;;
10260;SDS011;5175;42.606;23.388;2023-07-30T11:09:00;5.95;;;3.45;;
10260;SDS011;5175;42.606;23.388;2023-07-30T11:11:26;4.20;;;3.72;;
10260;SDS011;5175;42.606;23.388;2023-07-30T11:13:53;3.92;;;3.63;;
10260;SDS011;5175;42.606;23.388;2023-07-30T11:16:20;4.38;;;3.70;;
10260;SDS011;5175;42.606;23.388;2023-07-30T11:18:49;4.00;;;3.55;;
10260;SDS011;5175;42.606;23.388;2023-07-30T11:21:17;3.78;;;3.47;;
10260;SDS011;5175;42.606;23.388;2023-07-30T11:23:45;3.88;;;3.58;;
10260;SDS011;5175;42.606;23.388;2023-07-30T11:26:13;3.85;;;3.55;;
10260;SDS011;5175;42.606;23.388;2023-07-30T11:28:41;3.75;;;3.45;;
10260;SDS011;5175;42.606;23.388;2023-07-30T11:31:08;3.90;;;3.50;;
10260;SDS011;5175;42.606;23.388;2023-07-30T11:33:36;3.60;;;3.30;;
10260;SDS011;5175;42.606;23.388;2023-07-30T11:36:06;4.93;;;3.60;;
10260;SDS011;5175;42.606;23.388;2023-07-30T11:38:35;4.20;;;3.70;;
10260;SDS011;5175;42.606;23.388;2023-07-30T11:41:04;3.50;;;3.20;;
10260;SDS011;5175;42.606;23.388;2023-07-30T11:43:35;3.95;;;3.50;;
10260;SDS011;5175;42.606;23.388;2023-07-30T11:46:10;5.28;;;3.47;;
10260;SDS011;5175;42.606;23.388;2023-07-30T11:48:39;5.10;;;3.55;;
10260;SDS011;5175;42.606;23.388;2023-07-30T11:51:17;7.78;;;4.70;;
10260;SDS011;5175;42.606;23.388;2023-07-30T11:53:45;11.10;;;5.00;;
10260;SDS011;5175;42.606;23.388;2023-07-30T11:56:15;8.15;;;4.72;;
10260;SDS011;5175;42.606;23.388;2023-07-30T11:58:46;5.90;;;3.50;;
10260;SDS011;5175;42.606;23.388;2023-07-30T12:01:14;3.67;;;3.40;;
10260;SDS011;5175;42.606;23.388;2023-07-30T12:03:41;3.92;;;3.63;;
10260;SDS011;5175;42.606;23.388;2023-07-30T12:06:12;4.28;;;3.63;;
10260;SDS011;5175;42.606;23.388;2023-07-30T12:08:39;4.05;;;3.60;;
10260;SDS011;5175;42.606;23.388;2023-07-30T12:11:06;5.53;;;3.55;;
10260;SDS011;5175;42.606;23.388;2023-07-30T12:13:34;5.38;;;3.80;;
10260;SDS011;5175;42.606;23.388;2023-07-30T12:16:10;3.50;;;3.20;;
10260;SDS011;5175;42.606;23.388;2023-07-30T12:18:38;4.68;;;3.35;;
10260;SDS011;5175;42.606;23.388;2023-07-30T12:21:05;4.28;;;3.47;;
10260;SDS011;5175;42.606;23.388;2023-07-30T12:23:34;4.88;;;3.40;;
10260;SDS011;5175;42.606;23.388;2023-07-30T12:26:01;3.63;;;3.30;;
10260;SDS011;5175;42.606;23.388;2023-07-30T12:28:30;4.63;;;4.03;;
10260;SDS011;5175;42.606;23.388;2023-07-30T12:30:57;3.92;;;3.50;;
10260;SDS011;5175;42.606;23.388;2023-07-30T12:33:24;4.45;;;3.17;;
10260;SDS011;5175;42.606;23.388;2023-07-30T12:35:51;3.50;;;3.20;;
10260;SDS011;5175;42.606;23.388;2023-07-30T12:38:18;3.78;;;3.38;;
10260;SDS011;5175;42.606;23.388;2023-07-30T12:40:46;4.35;;;3.50;;
10260;SDS011;5175;42.606;23.388;2023-07-30T12:43:13;4.10;;;3.67;;
10260;SDS011;5175;42.606;23.388;2023-07-30T12:45:39;4.00;;;3.70;;
10260;SDS011;5175;42.606;23.388;2023-07-30T12:48:06;4.40;;;4.00;;
10260;SDS011;5175;42.606;23.388;2023-07-30T12:50:33;4.28;;;3.72;;
10260;SDS011;5175;42.606;23.388;2023-07-30T12:53:00;4.43;;;4.03;;
10260;SDS011;5175;42.606;23.388;2023-07-30T12:55:27;4.50;;;4.10;;
10260;SDS011;5175;42.606;23.388;2023-07-30T12:57:55;5.45;;;4.15;;
10260;SDS011;5175;42.606;23.388;2023-07-30T13:00:21;4.50;;;4.10;;
10260;SDS011;5175;42.606;23.388;2023-07-30T13:02:48;4.97;;;4.57;;
10260;SDS011;5175;42.606;23.388;2023-07-30T13:05:17;7.32;;;6.25;;
10260;SDS011;5175;42.606;23.388;2023-07-30T13:07:44;5.70;;;5.07;;
10260;SDS011;5175;42.606;23.388;2023-07-30T13:10:11;7.20;;;4.70;;
10260;SDS011;5175;42.606;23.388;2023-07-30T13:12:37;4.38;;;3.97;;
10260;SDS011;5175;42.606;23.388;2023-07-30T13:15:06;4.68;;;4.07;;
10260;SDS011;5175;42.606;23.388;2023-07-30T13:17:32;4.45;;;4.05;;
10260;SDS011;5175;42.606;23.388;2023-07-30T13:19:59;4.40;;;4.00;;
10260;SDS011;5175;42.606;23.388;2023-07-30T13:22:26;5.15;;;3.83;;
10260;SDS011;5175;42.606;23.388;2023-07-30T13:24:53;4.47;;;4.07;;
10260;SDS011;5175;42.606;23.388;2023-07-30T13:27:19;5.53;;;3.60;;
10260;SDS011;5175;42.606;23.388;2023-07-30T13:29:46;4.30;;;3.90;;
10260;SDS011;5175;42.606;23.388;2023-07-30T13:32:15;4.32;;;3.90;;
10260;SDS011;5175;42.606;23.388;2023-07-30T13:34:43;5.57;;;4.05;;
10260;SDS011;5175;42.606;23.388;2023-07-30T13:37:10;4.78;;;3.88;;
10260;SDS011;5175;42.606;23.388;2023-07-30T13:39:36;5.05;;;4.00;;
10260;SDS011;5175;42.606;23.388;2023-07-30T13:42:03;5.65;;;4.00;;
10260;SDS011;5175;42.606;23.388;2023-07-30T13:44:30;6.85;;;4.00;;
10260;SDS011;5175;42.606;23.388;2023-07-30T13:46:57;4.13;;;3.83;;
10260;SDS011;5175;42.606;23.388;2023-07-30T13:49:25;4.38;;;3.97;;
10260;SDS011;5175;42.606;23.388;2023-07-30T13:51:52;4.68;;;4.28;;
10260;SDS011;5175;42.606;23.388;2023-07-30T13:54:19;5.25;;;3.60;;
10260;SDS011;5175;42.606;23.388;2023-07-30T13:56:45;3.92;;;3.50;;
10260;SDS011;5175;42.606;23.388;2023-07-30T13:59:12;4.50;;;4.00;;
10260;SDS011;5175;42.606;23.388;2023-07-30T14:01:39;4.47;;;4.00;;
10260;SDS011;5175;42.606;23.388;2023-07-30T14:04:06;4.32;;;3.92;;
10260;SDS011;5175;42.606;23.388;2023-07-30T14:06:34;3.75;;;3.45;;
10260;SDS011;5175;42.606;23.388;2023-07-30T14:09:02;4.25;;;3.50;;
10260;SDS011;5175;42.606;23.388;2023-07-30T14:11:29;4.13;;;3.72;;
10260;SDS011;5175;42.606;23.388;2023-07-30T14:13:57;3.90;;;3.60;;
10260;SDS011;5175;42.606;23.388;2023-07-30T14:16:24;4.43;;;4.10;;
10260;SDS011;5175;42.606;23.388;2023-07-30T14:18:51;5.07;;;3.80;;
10260;SDS011;5175;42.606;23.388;2023-07-30T14:21:17;4.50;;;3.90;;
10260;SDS011;5175;42.606;23.388;2023-07-30T14:23:45;5.72;;;4.05;;
10260;SDS011;5175;42.606;23.388;2023-07-30T14:26:12;5.70;;;3.80;;
10260;SDS011;5175;42.606;23.388;2023-07-30T14:28:39;5.03;;;4.63;;
10260;SDS011;5175;42.606;23.388;2023-07-30T14:31:06;5.43;;;4.40;;
10260;SDS011;5175;42.606;23.388;2023-07-30T14:33:33;5.30;;;4.25;;
10260;SDS011;5175;42.606;23.388;2023-07-30T14:36:00;5.07;;;4.65;;
10260;SDS011;5175;42.606;23.388;2023-07-30T14:38:28;8.23;;;4.38;;
10260;SDS011;5175;42.606;23.388;2023-07-30T14:40:57;6.60;;;4.38;;
10260;SDS011;5175;42.606;23.388;2023-07-30T14:43:24;6.25;;;4.10;;
10260;SDS011;5175;42.606;23.388;2023-07-30T14:45:51;4.78;;;4.20;;
10260;SDS011;5175;42.606;23.388;2023-07-30T14:48:18;4.45;;;3.55;;
10260;SDS011;5175;42.606;23.388;2023-07-30T14:50:45;4.30;;;3.90;;
10260;SDS011;5175;42.606;23.388;2023-07-30T14:53:12;5.55;;;4.00;;